createdAt,value
2022-12-04T00:00:27.578Z,966.42
2022-12-04T00:01:27.515Z,966.38
2022-12-04T00:02:27.704Z,966.33
2022-12-04T00:03:27.560Z,966.38
2022-12-04T00:04:27.531Z,966.38
2022-12-04T00:05:27.595Z,966.37
2022-12-04T00:06:27.488Z,966.36
2022-12-04T00:07:27.650Z,966.35
2022-12-04T00:08:27.462Z,966.30
2022-12-04T00:09:27.411Z,966.30
2022-12-04T00:10:27.428Z,966.32
2022-12-04T00:11:27.444Z,966.31
2022-12-04T00:12:27.519Z,966.37
2022-12-04T00:13:27.378Z,966.39
2022-12-04T00:14:27.368Z,966.43
2022-12-04T00:15:27.434Z,966.42
2022-12-04T00:16:27.417Z,966.39
2022-12-04T00:17:27.443Z,966.38
2022-12-04T00:18:27.334Z,966.37
2022-12-04T00:19:27.300Z,966.35
2022-12-04T00:20:27.296Z,966.30
2022-12-04T00:21:27.264Z,966.32
2022-12-04T00:22:27.413Z,966.37
2022-12-04T00:23:27.234Z,966.36
2022-12-04T00:24:27.257Z,966.33
2022-12-04T00:25:27.212Z,966.32
2022-12-04T00:26:27.231Z,966.30
2022-12-04T00:27:27.330Z,966.23
2022-12-04T00:28:27.209Z,966.18
2022-12-04T00:29:27.234Z,966.23
2022-12-04T00:30:27.229Z,966.28
2022-12-04T00:31:27.179Z,966.24
2022-12-04T00:32:27.278Z,966.30
2022-12-04T00:33:27.177Z,966.34
2022-12-04T00:34:27.131Z,966.35
2022-12-04T00:35:27.085Z,966.32
2022-12-04T00:36:27.085Z,966.32
2022-12-04T00:37:27.187Z,966.35
2022-12-04T00:38:27.076Z,966.39
2022-12-04T00:39:27.036Z,966.37
2022-12-04T00:40:27.065Z,966.40
2022-12-04T00:41:27.012Z,966.40
2022-12-04T00:42:27.183Z,966.36
2022-12-04T00:43:26.981Z,966.41
2022-12-04T00:44:26.994Z,966.39
2022-12-04T00:45:27.029Z,966.33
2022-12-04T00:46:27.024Z,966.35
2022-12-04T00:47:27.059Z,966.32
2022-12-04T00:48:26.942Z,966.33
2022-12-04T00:49:26.908Z,966.33
2022-12-04T00:50:26.940Z,966.32
2022-12-04T00:51:26.887Z,966.40
2022-12-04T00:52:27.027Z,966.45
2022-12-04T00:53:26.857Z,966.49
2022-12-04T00:54:26.875Z,966.50
2022-12-04T00:55:27.208Z,966.43
2022-12-04T00:56:26.861Z,966.43
2022-12-04T00:57:26.934Z,966.43
2022-12-04T00:58:26.822Z,966.53
2022-12-04T00:59:26.780Z,966.52
2022-12-04T01:00:26.789Z,966.49
2022-12-04T01:01:26.921Z,966.45
2022-12-04T01:02:26.894Z,966.46
2022-12-04T01:03:26.750Z,966.46
2022-12-04T01:04:26.751Z,966.42
2022-12-04T01:05:26.699Z,966.47
2022-12-04T01:06:26.708Z,966.45
2022-12-04T01:07:26.866Z,966.42
2022-12-04T01:08:26.697Z,966.41
2022-12-04T01:09:26.646Z,966.39
2022-12-04T01:10:26.675Z,966.39
2022-12-04T01:11:26.633Z,966.45
2022-12-04T01:12:26.755Z,966.46
2022-12-04T01:13:26.619Z,966.43
2022-12-04T01:14:26.612Z,966.48
2022-12-04T01:15:26.679Z,966.44
2022-12-04T01:16:26.640Z,966.39
2022-12-04T01:17:26.681Z,966.35
2022-12-04T01:18:26.556Z,966.27
2022-12-04T01:19:26.520Z,966.30
2022-12-04T01:20:26.540Z,966.34
2022-12-04T01:21:26.490Z,966.35
2022-12-04T01:22:26.710Z,966.29
2022-12-04T01:23:26.480Z,966.34
2022-12-04T01:24:26.476Z,966.30
2022-12-04T01:25:26.458Z,966.28
2022-12-04T01:26:26.457Z,966.27
2022-12-04T01:27:26.548Z,966.32
2022-12-04T01:28:26.425Z,966.30
2022-12-04T01:29:26.432Z,966.29
2022-12-04T01:30:26.424Z,966.25
2022-12-04T01:31:26.441Z,966.30
2022-12-04T01:32:26.514Z,966.24
2022-12-04T01:33:26.351Z,966.30
2022-12-04T01:34:26.364Z,966.26
2022-12-04T01:35:26.313Z,966.30
2022-12-04T01:36:26.341Z,966.31
2022-12-04T01:37:26.421Z,966.28
2022-12-04T01:38:26.303Z,966.33
2022-12-04T01:39:26.290Z,966.31
2022-12-04T01:40:26.275Z,966.28
2022-12-04T01:41:26.238Z,966.29
2022-12-04T01:42:26.376Z,966.26
2022-12-04T01:43:26.256Z,966.24
2022-12-04T01:44:26.237Z,966.24
2022-12-04T01:45:26.245Z,966.26
2022-12-04T01:46:26.288Z,966.27
2022-12-04T01:47:26.305Z,966.33
2022-12-04T01:48:26.175Z,966.32
2022-12-04T01:49:26.200Z,966.28
2022-12-04T01:50:26.152Z,966.24
2022-12-04T01:51:26.114Z,966.22
2022-12-04T01:52:26.140Z,966.26
2022-12-04T01:53:26.219Z,966.25
2022-12-04T01:54:26.090Z,966.25
2022-12-04T01:55:26.063Z,966.22
2022-12-04T01:56:26.069Z,966.23
2022-12-04T01:57:26.040Z,966.28
2022-12-04T01:58:26.185Z,966.29
2022-12-04T01:59:26.140Z,966.29
2022-12-04T02:00:26.018Z,966.29
2022-12-04T02:01:26.034Z,966.20
2022-12-04T02:02:26.142Z,966.22
2022-12-04T02:03:26.188Z,966.20
2022-12-04T02:04:25.974Z,966.15
2022-12-04T02:05:25.934Z,966.20
2022-12-04T02:06:25.945Z,966.22
2022-12-04T02:07:26.141Z,966.16
2022-12-04T02:08:25.940Z,966.13
2022-12-04T02:09:27.133Z,966.14
2022-12-04T02:10:25.891Z,966.13
2022-12-04T02:11:25.877Z,966.03
2022-12-04T02:12:26.051Z,966.02
2022-12-04T02:13:25.836Z,966.06
2022-12-04T02:14:25.830Z,966.05
2022-12-04T02:15:25.812Z,966.13
2022-12-04T02:16:25.933Z,966.05
2022-12-04T02:17:25.998Z,966.13
2022-12-04T02:18:25.798Z,966.05
2022-12-04T02:19:26.116Z,966.06
2022-12-04T02:20:25.767Z,966.04
2022-12-04T02:21:25.733Z,966.01
2022-12-04T02:22:25.735Z,966.01
2022-12-04T02:23:25.703Z,966.02
2022-12-04T02:24:25.721Z,965.99
2022-12-04T02:25:25.852Z,965.94
2022-12-04T02:26:25.681Z,965.94
2022-12-04T02:27:25.651Z,966.01
2022-12-04T02:28:25.832Z,966.02
2022-12-04T02:29:25.639Z,966.09
2022-12-04T02:30:25.737Z,966.10
2022-12-04T02:31:25.634Z,966.08
2022-12-04T02:32:25.626Z,966.11
2022-12-04T02:33:25.758Z,966.04
2022-12-04T02:34:25.588Z,966.04
2022-12-04T02:35:25.547Z,966.05
2022-12-04T02:36:25.576Z,965.99
2022-12-04T02:37:25.531Z,966.00
2022-12-04T02:38:25.705Z,966.05
2022-12-04T02:39:25.501Z,965.99
2022-12-04T02:40:25.523Z,966.00
2022-12-04T02:41:25.476Z,965.99
2022-12-04T02:42:25.498Z,966.01
2022-12-04T02:43:25.631Z,966.00
2022-12-04T02:44:25.452Z,966.05
2022-12-04T02:45:25.429Z,965.99
2022-12-04T02:46:25.453Z,965.97
2022-12-04T02:47:25.400Z,965.99
2022-12-04T02:48:25.571Z,966.00
2022-12-04T02:49:25.376Z,966.02
2022-12-04T02:50:25.409Z,966.06
2022-12-04T02:51:25.349Z,966.10
2022-12-04T02:52:25.355Z,966.06
2022-12-04T02:53:25.496Z,966.04
2022-12-04T02:54:25.336Z,966.03
2022-12-04T02:55:25.297Z,966.05
2022-12-04T02:56:25.295Z,966.07
2022-12-04T02:57:25.264Z,966.06
2022-12-04T02:58:25.434Z,966.00
2022-12-04T02:59:25.265Z,966.00
2022-12-04T03:00:25.233Z,966.06
2022-12-04T03:01:25.323Z,966.08
2022-12-04T03:02:25.338Z,966.12
2022-12-04T03:03:25.223Z,966.15
2022-12-04T03:04:25.360Z,966.10
2022-12-04T03:05:25.199Z,966.11
2022-12-04T03:06:25.158Z,966.13
2022-12-04T03:07:25.159Z,966.11
2022-12-04T03:08:25.137Z,966.15
2022-12-04T03:09:25.318Z,966.16
2022-12-04T03:10:25.110Z,966.13
2022-12-04T03:11:25.125Z,966.10
2022-12-04T03:12:25.076Z,966.17
2022-12-04T03:13:25.086Z,966.18
2022-12-04T03:14:25.237Z,966.15
2022-12-04T03:15:25.074Z,966.13
2022-12-04T03:16:25.072Z,966.13
2022-12-04T03:17:25.034Z,966.10
2022-12-04T03:18:25.005Z,966.10
2022-12-04T03:19:25.182Z,966.10
2022-12-04T03:20:24.980Z,966.10
2022-12-04T03:21:24.981Z,966.09
2022-12-04T03:22:24.952Z,966.09
2022-12-04T03:23:24.974Z,966.09
2022-12-04T03:24:25.108Z,966.03
2022-12-04T03:25:24.946Z,966.03
2022-12-04T03:26:24.898Z,965.99
2022-12-04T03:27:24.906Z,965.97
2022-12-04T03:28:25.056Z,965.99
2022-12-04T03:29:31.933Z,966.03
2022-12-04T03:30:24.921Z,966.06
2022-12-04T03:31:24.953Z,966.02
2022-12-04T03:32:24.849Z,966.05
2022-12-04T03:33:24.842Z,966.08
2022-12-04T03:34:25.003Z,966.06
2022-12-04T03:35:24.822Z,966.07
2022-12-04T03:36:24.779Z,965.99
2022-12-04T03:37:24.780Z,966.02
2022-12-04T03:38:24.749Z,965.96
2022-12-04T03:39:24.929Z,965.95
2022-12-04T03:40:24.739Z,965.93
2022-12-04T03:41:24.738Z,965.92
2022-12-04T03:42:25.549Z,965.88
2022-12-04T03:43:24.756Z,965.85
2022-12-04T03:44:24.855Z,965.90
2022-12-04T03:45:24.722Z,965.91
2022-12-04T03:46:24.709Z,965.84
2022-12-04T03:47:24.694Z,965.84
2022-12-04T03:48:25.375Z,965.84
2022-12-04T03:49:25.607Z,965.87
2022-12-04T03:50:24.610Z,965.87
2022-12-04T03:51:24.600Z,965.84
2022-12-04T03:52:24.574Z,965.86
2022-12-04T03:53:25.545Z,965.89
2022-12-04T03:54:24.731Z,965.89
2022-12-04T03:55:24.777Z,965.93
2022-12-04T03:56:24.521Z,965.95
2022-12-04T03:57:24.539Z,965.98
2022-12-04T03:58:24.500Z,965.98
2022-12-04T03:59:24.512Z,966.05
2022-12-04T04:00:24.647Z,966.10
2022-12-04T04:01:24.563Z,966.10
2022-12-04T04:02:24.547Z,966.16
2022-12-04T04:03:24.453Z,966.14
2022-12-04T04:04:24.424Z,966.23
2022-12-04T04:05:24.664Z,966.21
2022-12-04T04:06:24.410Z,966.21
2022-12-04T04:07:24.443Z,966.23
2022-12-04T04:08:24.449Z,966.17
2022-12-04T04:09:24.375Z,966.17
2022-12-04T04:10:24.526Z,966.12
2022-12-04T04:11:24.354Z,966.09
2022-12-04T04:12:24.322Z,966.09
2022-12-04T04:13:24.345Z,966.01
2022-12-04T04:14:24.290Z,966.04
2022-12-04T04:15:24.486Z,965.98
2022-12-04T04:16:24.395Z,965.95
2022-12-04T04:17:24.280Z,965.94
2022-12-04T04:18:24.306Z,965.99
2022-12-04T04:19:24.446Z,965.91
2022-12-04T04:20:24.237Z,965.92
2022-12-04T04:21:24.222Z,965.89
2022-12-04T04:22:24.194Z,965.90
2022-12-04T04:23:24.209Z,965.90
2022-12-04T04:24:24.344Z,965.93
2022-12-04T04:25:24.174Z,965.97
2022-12-04T04:26:24.143Z,966.04
2022-12-04T04:27:24.150Z,966.05
2022-12-04T04:28:24.121Z,966.04
2022-12-04T04:29:24.300Z,966.00
2022-12-04T04:30:24.113Z,965.97
2022-12-04T04:31:24.337Z,965.89
2022-12-04T04:32:24.068Z,965.89
2022-12-04T04:33:24.828Z,965.92
2022-12-04T04:34:24.228Z,965.93
2022-12-04T04:35:24.047Z,965.88
2022-12-04T04:36:24.015Z,965.92
2022-12-04T04:37:24.016Z,965.94
2022-12-04T04:38:23.985Z,965.96
2022-12-04T04:39:24.166Z,965.92
2022-12-04T04:40:23.994Z,965.92
2022-12-04T04:41:23.993Z,965.88
2022-12-04T04:42:24.912Z,965.86
2022-12-04T04:43:23.961Z,965.85
2022-12-04T04:44:24.091Z,965.90
2022-12-04T04:45:24.829Z,965.88
2022-12-04T04:46:23.932Z,965.91
2022-12-04T04:47:23.890Z,965.91
2022-12-04T04:48:23.860Z,965.93
2022-12-04T04:49:23.897Z,965.99
2022-12-04T04:50:24.019Z,966.06
2022-12-04T04:51:23.877Z,966.06
2022-12-04T04:52:23.807Z,966.01
2022-12-04T04:53:23.828Z,966.02
2022-12-04T04:54:23.786Z,966.00
2022-12-04T04:55:24.258Z,965.99
2022-12-04T04:56:23.765Z,965.94
2022-12-04T04:57:23.784Z,965.95
2022-12-04T04:58:23.734Z,965.92
2022-12-04T04:59:23.756Z,965.89
2022-12-04T05:00:23.925Z,965.88
2022-12-04T05:01:23.875Z,965.85
2022-12-04T05:02:23.770Z,965.82
2022-12-04T05:03:23.852Z,965.89
2022-12-04T05:04:23.720Z,965.90
2022-12-04T05:05:23.851Z,965.89
2022-12-04T05:06:23.719Z,965.89
2022-12-04T05:07:23.749Z,965.91
2022-12-04T05:08:23.608Z,965.98
2022-12-04T05:09:23.628Z,965.94
2022-12-04T05:10:23.758Z,965.96
2022-12-04T05:11:23.594Z,966.01
2022-12-04T05:12:23.556Z,966.00
2022-12-04T05:13:23.574Z,966.04
2022-12-04T05:14:23.593Z,965.96
2022-12-04T05:15:24.135Z,966.02
2022-12-04T05:16:23.671Z,966.00
2022-12-04T05:17:24.457Z,965.98
2022-12-04T05:18:23.485Z,965.99
2022-12-04T05:19:23.492Z,965.97
2022-12-04T05:20:23.845Z,965.97
2022-12-04T05:21:23.462Z,966.01
2022-12-04T05:22:23.430Z,965.96
2022-12-04T05:23:23.452Z,966.01
2022-12-04T05:24:23.412Z,966.04
2022-12-04T05:25:23.594Z,966.01
2022-12-04T05:26:23.378Z,966.06
2022-12-04T05:27:23.400Z,966.06
2022-12-04T05:28:23.444Z,966.06
2022-12-04T05:29:23.382Z,966.10
2022-12-04T05:30:23.525Z,966.12
2022-12-04T05:31:23.411Z,966.11
2022-12-04T05:32:23.311Z,966.09
2022-12-04T05:33:23.323Z,966.10
2022-12-04T05:34:23.311Z,966.16
2022-12-04T05:35:23.463Z,966.06
2022-12-04T05:36:23.616Z,966.09
2022-12-04T05:37:23.262Z,966.06
2022-12-04T05:38:23.243Z,966.06
2022-12-04T05:39:23.241Z,966.07
2022-12-04T05:40:23.380Z,966.08
2022-12-04T05:41:23.210Z,965.99
2022-12-04T05:42:23.187Z,966.00
2022-12-04T05:43:23.929Z,966.01
2022-12-04T05:44:23.998Z,966.00
2022-12-04T05:45:23.336Z,966.01
2022-12-04T05:46:23.272Z,965.97
2022-12-04T05:47:23.146Z,966.07
2022-12-04T05:48:23.230Z,966.08
2022-12-04T05:49:24.058Z,966.13
2022-12-04T05:50:23.254Z,966.10
2022-12-04T05:51:23.094Z,966.13
2022-12-04T05:52:23.052Z,966.10
2022-12-04T05:53:23.072Z,966.10
2022-12-04T05:54:23.984Z,966.11
2022-12-04T05:55:23.211Z,966.12
2022-12-04T05:56:23.001Z,966.13
2022-12-04T05:57:25.425Z,966.14
2022-12-04T05:58:23.030Z,966.13
2022-12-04T05:59:22.985Z,966.11
2022-12-04T06:00:23.148Z,966.10
2022-12-04T06:01:22.966Z,966.14
2022-12-04T06:02:22.956Z,966.11
2022-12-04T06:03:23.064Z,966.09
2022-12-04T06:04:22.897Z,966.16
2022-12-04T06:05:23.086Z,966.15
2022-12-04T06:06:22.902Z,966.15
2022-12-04T06:07:22.887Z,966.14
2022-12-04T06:08:22.852Z,966.15
2022-12-04T06:09:23.042Z,966.15
2022-12-04T06:10:22.984Z,966.22
2022-12-04T06:11:22.856Z,966.24
2022-12-04T06:12:22.821Z,966.23
2022-12-04T06:13:22.897Z,966.26
2022-12-04T06:14:23.741Z,966.28
2022-12-04T06:15:22.810Z,966.24
2022-12-04T06:16:22.803Z,966.25
2022-12-04T06:17:22.767Z,966.25
2022-12-04T06:18:22.749Z,966.27
2022-12-04T06:19:22.921Z,966.22
2022-12-04T06:20:22.725Z,966.19
2022-12-04T06:21:22.698Z,966.21
2022-12-04T06:22:22.677Z,966.15
2022-12-04T06:23:22.680Z,966.19
2022-12-04T06:24:22.827Z,966.14
2022-12-04T06:25:22.685Z,966.15
2022-12-04T06:26:23.441Z,966.19
2022-12-04T06:27:27.560Z,966.18
2022-12-04T06:28:23.725Z,966.16
2022-12-04T06:29:22.783Z,966.24
2022-12-04T06:30:22.572Z,966.23
2022-12-04T06:31:22.623Z,966.21
2022-12-04T06:32:22.628Z,966.22
2022-12-04T06:33:22.550Z,966.22
2022-12-04T06:34:22.691Z,966.22
2022-12-04T06:35:22.480Z,966.20
2022-12-04T06:36:22.439Z,966.17
2022-12-04T06:37:22.461Z,966.14
2022-12-04T06:38:22.419Z,966.12
2022-12-04T06:39:22.611Z,966.16
2022-12-04T06:40:22.386Z,966.23
2022-12-04T06:41:22.476Z,966.27
2022-12-04T06:42:22.380Z,966.31
2022-12-04T06:43:22.381Z,966.32
2022-12-04T06:44:22.525Z,966.28
2022-12-04T06:45:22.370Z,966.29
2022-12-04T06:46:22.389Z,966.28
2022-12-04T06:47:22.320Z,966.27
2022-12-04T06:48:22.331Z,966.29
2022-12-04T06:49:22.640Z,966.35
2022-12-04T06:50:22.440Z,966.34
2022-12-04T06:51:22.270Z,966.33
2022-12-04T06:52:22.239Z,966.32
2022-12-04T06:53:22.251Z,966.28
2022-12-04T06:54:22.217Z,966.25
2022-12-04T06:55:22.469Z,966.31
2022-12-04T06:56:22.290Z,966.30
2022-12-04T06:57:22.187Z,966.34
2022-12-04T06:58:22.165Z,966.32
2022-12-04T06:59:22.164Z,966.30
2022-12-04T07:00:22.555Z,966.31
2022-12-04T07:01:22.224Z,966.32
2022-12-04T07:02:22.211Z,966.38
2022-12-04T07:03:22.294Z,966.38
2022-12-04T07:04:22.263Z,966.37
2022-12-04T07:05:22.090Z,966.45
2022-12-04T07:06:22.062Z,966.44
2022-12-04T07:07:22.104Z,966.43
2022-12-04T07:08:22.045Z,966.41
2022-12-04T07:09:22.770Z,966.36
2022-12-04T07:10:22.010Z,966.30
2022-12-04T07:11:22.849Z,966.34
2022-12-04T07:12:22.007Z,966.33
2022-12-04T07:13:21.977Z,966.31
2022-12-04T07:14:22.171Z,966.36
2022-12-04T07:15:21.946Z,966.42
2022-12-04T07:16:21.994Z,966.42
2022-12-04T07:17:21.925Z,966.43
2022-12-04T07:18:21.934Z,966.42
2022-12-04T07:19:22.073Z,966.39
2022-12-04T07:20:21.913Z,966.33
2022-12-04T07:21:21.874Z,966.33
2022-12-04T07:22:22.038Z,966.30
2022-12-04T07:23:21.852Z,966.28
2022-12-04T07:24:22.589Z,966.35
2022-12-04T07:25:21.867Z,966.34
2022-12-04T07:26:21.830Z,966.31
2022-12-04T07:27:21.798Z,966.33
2022-12-04T07:28:21.819Z,966.32
2022-12-04T07:29:21.788Z,966.28
2022-12-04T07:30:21.779Z,966.31
2022-12-04T07:31:21.832Z,966.32
2022-12-04T07:32:21.796Z,966.34
2022-12-04T07:33:21.732Z,966.32
2022-12-04T07:34:21.744Z,966.33
2022-12-04T07:35:21.701Z,966.32
2022-12-04T07:36:21.733Z,966.29
2022-12-04T07:37:21.754Z,966.32
2022-12-04T07:38:21.680Z,966.34
2022-12-04T07:39:21.819Z,966.36
2022-12-04T07:40:21.658Z,966.39
2022-12-04T07:41:21.623Z,966.38
2022-12-04T07:42:24.321Z,966.40
2022-12-04T07:43:22.337Z,966.41
2022-12-04T07:44:21.799Z,966.42
2022-12-04T07:45:21.569Z,966.39
2022-12-04T07:46:21.757Z,966.40
2022-12-04T07:47:21.548Z,966.39
2022-12-04T07:48:21.556Z,966.46
2022-12-04T07:49:21.686Z,966.39
2022-12-04T07:50:21.556Z,966.42
2022-12-04T07:51:21.494Z,966.43
2022-12-04T07:52:21.503Z,966.43
2022-12-04T07:53:21.709Z,966.50
2022-12-04T07:54:21.666Z,966.51
2022-12-04T07:55:23.313Z,966.53
2022-12-04T07:56:21.463Z,966.47
2022-12-04T07:57:21.411Z,966.52
2022-12-04T07:58:21.433Z,966.50
2022-12-04T07:59:21.572Z,966.51
2022-12-04T08:00:22.310Z,966.49
2022-12-04T08:01:21.480Z,966.49
2022-12-04T08:02:21.369Z,966.49
2022-12-04T08:03:21.347Z,966.42
2022-12-04T08:04:21.538Z,966.41
2022-12-04T08:05:21.319Z,966.43
2022-12-04T08:06:21.378Z,966.43
2022-12-04T08:07:21.286Z,966.46
2022-12-04T08:08:21.381Z,966.46
2022-12-04T08:09:21.436Z,966.43
2022-12-04T08:10:21.404Z,966.41
2022-12-04T08:11:21.237Z,966.40
2022-12-04T08:12:21.245Z,966.36
2022-12-04T08:13:21.213Z,966.34
2022-12-04T08:14:21.392Z,966.35
2022-12-04T08:15:21.186Z,966.38
2022-12-04T08:16:21.231Z,966.36
2022-12-04T08:17:21.268Z,966.37
2022-12-04T08:18:21.190Z,966.44
2022-12-04T08:19:21.326Z,966.39
2022-12-04T08:20:21.164Z,966.45
2022-12-04T08:21:21.128Z,966.43
2022-12-04T08:22:25.049Z,966.50
2022-12-04T08:23:21.087Z,966.41
2022-12-04T08:24:22.217Z,966.54
2022-12-04T08:25:21.989Z,966.55
2022-12-04T08:26:21.077Z,966.54
2022-12-04T08:27:21.074Z,966.57
2022-12-04T08:28:21.094Z,966.62
2022-12-04T08:29:21.054Z,966.55
2022-12-04T08:30:21.783Z,966.56
2022-12-04T08:31:21.158Z,966.52
2022-12-04T08:32:21.132Z,966.47
2022-12-04T08:33:21.912Z,966.49
2022-12-04T08:34:21.024Z,966.50
2022-12-04T08:35:20.943Z,966.49
2022-12-04T08:36:20.953Z,966.51
2022-12-04T08:37:20.945Z,966.50
2022-12-04T08:38:21.010Z,966.48
2022-12-04T08:39:21.006Z,966.49
2022-12-04T08:40:21.730Z,966.47
2022-12-04T08:41:20.858Z,966.47
2022-12-04T08:42:20.876Z,966.51
2022-12-04T08:43:20.863Z,966.55
2022-12-04T08:44:21.022Z,966.55
2022-12-04T08:45:21.735Z,966.51
2022-12-04T08:46:21.354Z,966.50
2022-12-04T08:47:20.786Z,966.48
2022-12-04T08:48:20.802Z,966.48
2022-12-04T08:49:20.773Z,966.47
2022-12-04T08:50:20.811Z,966.50
2022-12-04T08:51:20.733Z,966.53
2022-12-04T08:52:20.741Z,966.56
2022-12-04T08:53:20.809Z,966.51
2022-12-04T08:54:20.956Z,966.54
2022-12-04T08:55:20.685Z,966.48
2022-12-04T08:56:20.694Z,966.51
2022-12-04T08:57:20.660Z,966.52
2022-12-04T08:58:20.678Z,966.52
2022-12-04T08:59:20.811Z,966.50
2022-12-04T09:00:20.668Z,966.48
2022-12-04T09:01:20.729Z,966.49
2022-12-04T09:02:20.613Z,966.52
2022-12-04T09:03:23.628Z,966.50
2022-12-04T09:04:21.834Z,966.57
2022-12-04T09:05:20.558Z,966.59
2022-12-04T09:06:20.580Z,966.56
2022-12-04T09:07:20.533Z,966.55
2022-12-04T09:08:20.718Z,966.56
2022-12-04T09:09:20.721Z,966.51
2022-12-04T09:10:21.452Z,966.46
2022-12-04T09:11:20.478Z,966.37
2022-12-04T09:12:20.549Z,966.40
2022-12-04T09:13:21.232Z,966.37
2022-12-04T09:14:20.648Z,966.34
2022-12-04T09:15:20.427Z,966.31
2022-12-04T09:16:20.549Z,966.32
2022-12-04T09:17:20.419Z,966.31
2022-12-04T09:18:21.165Z,966.28
2022-12-04T09:19:20.556Z,966.33
2022-12-04T09:20:20.400Z,966.32
2022-12-04T09:21:20.353Z,966.35
2022-12-04T09:22:20.363Z,966.39
2022-12-04T09:23:20.343Z,966.42
2022-12-04T09:24:20.521Z,966.47
2022-12-04T09:25:20.306Z,966.44
2022-12-04T09:26:20.302Z,966.44
2022-12-04T09:27:20.292Z,966.43
2022-12-04T09:28:20.296Z,966.42
2022-12-04T09:29:20.468Z,966.47
2022-12-04T09:30:27.392Z,966.47
2022-12-04T09:31:23.029Z,966.50
2022-12-04T09:32:20.233Z,966.51
2022-12-04T09:33:20.200Z,966.50
2022-12-04T09:34:20.389Z,966.52
2022-12-04T09:35:20.181Z,966.54
2022-12-04T09:36:20.178Z,966.57
2022-12-04T09:37:20.147Z,966.63
2022-12-04T09:38:20.169Z,966.69
2022-12-04T09:39:20.322Z,966.61
2022-12-04T09:40:20.149Z,966.62
2022-12-04T09:41:20.095Z,966.65
2022-12-04T09:42:20.136Z,966.65
2022-12-04T09:43:20.074Z,966.70
2022-12-04T09:44:20.263Z,966.68
2022-12-04T09:45:20.054Z,966.68
2022-12-04T09:46:20.099Z,966.65
2022-12-04T09:47:20.022Z,966.58
2022-12-04T09:48:20.093Z,966.50
2022-12-04T09:49:20.196Z,966.48
2022-12-04T09:50:20.025Z,966.41
2022-12-04T09:51:19.970Z,966.35
2022-12-04T09:52:22.007Z,966.36
2022-12-04T09:53:19.960Z,966.31
2022-12-04T09:54:20.162Z,966.29
2022-12-04T09:55:19.946Z,966.29
2022-12-04T09:56:19.941Z,966.27
2022-12-04T09:57:19.897Z,966.17
2022-12-04T09:58:19.926Z,966.21
2022-12-04T09:59:20.046Z,966.24
2022-12-04T10:00:19.884Z,966.19
2022-12-04T10:01:19.843Z,966.24
2022-12-04T10:02:19.996Z,966.22
2022-12-04T10:03:19.966Z,966.23
2022-12-04T10:04:20.093Z,966.28
2022-12-04T10:05:19.803Z,966.23
2022-12-04T10:06:19.821Z,966.20
2022-12-04T10:07:19.782Z,966.20
2022-12-04T10:08:19.884Z,966.22
2022-12-04T10:09:20.043Z,966.23
2022-12-04T10:10:19.748Z,966.28
2022-12-04T10:11:19.719Z,966.36
2022-12-04T10:12:19.741Z,966.41
2022-12-04T10:13:19.695Z,966.42
2022-12-04T10:14:19.880Z,966.42
2022-12-04T10:15:19.665Z,966.46
2022-12-04T10:16:19.764Z,966.40
2022-12-04T10:17:19.655Z,966.39
2022-12-04T10:18:19.653Z,966.41
2022-12-04T10:19:19.794Z,966.42
2022-12-04T10:20:19.661Z,966.43
2022-12-04T10:21:19.603Z,966.45
2022-12-04T10:22:19.603Z,966.46
2022-12-04T10:23:19.573Z,966.44
2022-12-04T10:24:19.767Z,966.45
2022-12-04T10:25:19.540Z,966.45
2022-12-04T10:26:19.575Z,966.45
2022-12-04T10:27:19.514Z,966.44
2022-12-04T10:28:19.703Z,966.40
2022-12-04T10:29:19.498Z,966.40
2022-12-04T10:30:19.696Z,966.42
2022-12-04T10:31:19.533Z,966.41
2022-12-04T10:32:19.504Z,966.33
2022-12-04T10:33:19.483Z,966.29
2022-12-04T10:34:19.479Z,966.25
2022-12-04T10:35:19.587Z,966.26
2022-12-04T10:36:19.438Z,966.28
2022-12-04T10:37:19.395Z,966.25
2022-12-04T10:38:19.411Z,966.22
2022-12-04T10:39:19.363Z,966.19
2022-12-04T10:40:19.542Z,966.13
2022-12-04T10:41:19.340Z,966.00
2022-12-04T10:42:19.351Z,965.90
2022-12-04T10:43:19.451Z,965.86
2022-12-04T10:44:19.319Z,965.87
2022-12-04T10:45:19.319Z,965.90
2022-12-04T10:46:19.350Z,965.92
2022-12-04T10:47:19.299Z,965.88
2022-12-04T10:48:19.276Z,965.95
2022-12-04T10:49:19.264Z,965.95
2022-12-04T10:50:19.431Z,965.96
2022-12-04T10:51:19.217Z,965.94
2022-12-04T10:52:19.234Z,965.91
2022-12-04T10:53:19.236Z,965.93
2022-12-04T10:54:19.274Z,965.92
2022-12-04T10:55:19.426Z,965.88
2022-12-04T10:56:19.178Z,965.83
2022-12-04T10:57:19.143Z,965.78
2022-12-04T10:58:19.166Z,965.74
2022-12-04T10:59:19.122Z,965.72
2022-12-04T11:00:19.150Z,965.76
2022-12-04T11:01:19.148Z,965.78
2022-12-04T11:02:19.195Z,965.77
2022-12-04T11:03:19.317Z,965.82
2022-12-04T11:04:19.082Z,965.78
2022-12-04T11:05:19.229Z,965.77
2022-12-04T11:06:19.067Z,965.72
2022-12-04T11:07:23.099Z,965.73
2022-12-04T11:08:20.007Z,965.70
2022-12-04T11:09:18.995Z,965.72
2022-12-04T11:10:19.311Z,965.66
2022-12-04T11:11:18.972Z,965.67
2022-12-04T11:12:18.986Z,965.74
2022-12-04T11:13:18.944Z,965.75
2022-12-04T11:14:19.145Z,965.71
2022-12-04T11:15:18.983Z,965.73
2022-12-04T11:16:18.978Z,965.76
2022-12-04T11:17:18.900Z,965.74
2022-12-04T11:18:19.002Z,965.79
2022-12-04T11:19:18.897Z,965.78
2022-12-04T11:20:19.152Z,965.78
2022-12-04T11:21:19.578Z,965.80
2022-12-04T11:22:18.850Z,965.80
2022-12-04T11:23:18.829Z,965.80
2022-12-04T11:24:18.897Z,965.78
2022-12-04T11:25:19.619Z,965.79
2022-12-04T11:26:18.786Z,965.73
2022-12-04T11:27:21.647Z,965.73
2022-12-04T11:28:39.718Z,965.68
2022-12-04T11:29:19.839Z,965.73
2022-12-04T11:30:18.992Z,965.69
2022-12-04T11:31:20.550Z,965.65
2022-12-04T11:32:18.702Z,965.62
2022-12-04T11:33:18.726Z,965.66
2022-12-04T11:34:18.756Z,965.68
2022-12-04T11:35:18.892Z,965.74
2022-12-04T11:36:18.671Z,965.70
2022-12-04T11:37:18.789Z,965.65
2022-12-04T11:38:18.684Z,965.63
2022-12-04T11:39:18.635Z,965.62
2022-12-04T11:40:18.796Z,965.57
2022-12-04T11:41:18.698Z,965.64
2022-12-04T11:42:18.585Z,965.63
2022-12-04T11:43:19.430Z,965.69
2022-12-04T11:44:18.555Z,965.64
2022-12-04T11:45:18.903Z,965.55
2022-12-04T11:46:18.583Z,965.51
2022-12-04T11:47:18.593Z,965.50
2022-12-04T11:48:18.528Z,965.50
2022-12-04T11:49:18.513Z,965.56
2022-12-04T11:50:18.775Z,965.62
2022-12-04T11:51:18.561Z,965.68
2022-12-04T11:52:18.492Z,965.70
2022-12-04T11:53:18.609Z,965.73
2022-12-04T11:54:18.442Z,965.69
2022-12-04T11:55:22.306Z,965.71
2022-12-04T11:56:19.440Z,965.74
2022-12-04T11:57:18.435Z,965.72
2022-12-04T11:58:18.390Z,965.72
2022-12-04T11:59:18.522Z,965.80
2022-12-04T12:00:18.389Z,965.82
2022-12-04T12:01:18.458Z,965.86
2022-12-04T12:02:18.402Z,965.91
2022-12-04T12:03:18.590Z,965.93
2022-12-04T12:04:18.354Z,965.94
2022-12-04T12:05:18.515Z,965.87
2022-12-04T12:06:18.284Z,965.88
2022-12-04T12:07:18.340Z,965.86
2022-12-04T12:08:18.270Z,965.85
2022-12-04T12:09:18.274Z,965.86
2022-12-04T12:10:18.421Z,965.91
2022-12-04T12:11:18.249Z,965.89
2022-12-04T12:12:18.210Z,965.88
2022-12-04T12:13:18.223Z,965.91
2022-12-04T12:14:18.191Z,965.90
2022-12-04T12:15:18.375Z,965.90
2022-12-04T12:16:18.217Z,965.85
2022-12-04T12:17:18.192Z,965.82
2022-12-04T12:18:20.810Z,965.77
2022-12-04T12:19:18.185Z,965.70
2022-12-04T12:20:18.309Z,965.68
2022-12-04T12:21:18.144Z,965.65
2022-12-04T12:22:18.094Z,965.67
2022-12-04T12:23:18.114Z,965.69
2022-12-04T12:24:18.076Z,965.71
2022-12-04T12:25:18.250Z,965.70
2022-12-04T12:26:18.051Z,965.67
2022-12-04T12:27:18.063Z,965.53
2022-12-04T12:28:18.020Z,965.52